createdAt,value
2022-08-17T00:01:51.694Z,99.90
2022-08-17T00:04:30.328Z,99.90
2022-08-17T00:06:58.506Z,99.90
2022-08-17T00:09:33.134Z,99.90
2022-08-17T00:12:40.576Z,99.90
2022-08-17T00:14:52.566Z,99.90
2022-08-17T00:17:21.156Z,99.90
2022-08-17T00:20:06.408Z,99.90
2022-08-17T00:22:37.638Z,99.90
2022-08-17T00:25:13.195Z,99.90
2022-08-17T00:27:53.355Z,99.90
2022-08-17T00:30:23.917Z,99.90
2022-08-17T00:33:16.082Z,99.90
2022-08-17T00:35:51.647Z,99.90
2022-08-17T00:38:20.146Z,99.90
2022-08-17T00:41:03.990Z,99.90
2022-08-17T00:43:34.263Z,99.90
2022-08-17T00:46:08.160Z,99.90
2022-08-17T00:48:36.676Z,99.90
2022-08-17T00:51:09.948Z,99.90
2022-08-17T00:54:09.411Z,99.90
2022-08-17T00:56:46.089Z,99.90
2022-08-17T00:59:19.078Z,99.90
2022-08-17T01:01:53.968Z,99.90
2022-08-17T01:04:31.990Z,99.90
2022-08-17T01:07:02.407Z,99.90
2022-08-17T01:09:31.514Z,99.90
2022-08-17T01:11:59.758Z,99.90
2022-08-17T01:14:30.987Z,99.90
2022-08-17T01:17:00.598Z,99.90
2022-08-17T01:19:32.348Z,99.90
2022-08-17T01:22:12.762Z,99.90
2022-08-17T01:25:06.435Z,99.90
2022-08-17T01:27:36.543Z,99.90
2022-08-17T01:30:56.825Z,99.90
2022-08-17T01:33:09.944Z,99.90
2022-08-17T01:35:41.492Z,99.90
2022-08-17T01:38:09.760Z,99.90
2022-08-17T01:40:47.305Z,99.90
2022-08-17T01:43:34.938Z,99.90
2022-08-17T01:46:04.421Z,99.90
2022-08-17T01:48:34.315Z,99.90
2022-08-17T01:51:07.763Z,99.90
2022-08-17T01:53:47.783Z,99.90
2022-08-17T01:56:18.486Z,99.90
2022-08-17T01:58:53.568Z,99.90
2022-08-17T02:01:26.048Z,99.90
2022-08-17T02:04:00.487Z,99.90
2022-08-17T02:06:52.879Z,99.90
2022-08-17T02:09:25.574Z,99.90
2022-08-17T02:12:37.270Z,99.90
2022-08-17T02:14:52.215Z,99.90
2022-08-17T02:17:20.244Z,99.90
2022-08-17T02:19:48.930Z,99.90
2022-08-17T02:22:18.388Z,99.90
2022-08-17T02:25:00.288Z,99.90
2022-08-17T02:27:30.265Z,99.90
2022-08-17T02:29:58.323Z,99.90
2022-08-17T02:32:29.634Z,99.90
2022-08-17T02:35:06.849Z,99.90
2022-08-17T02:37:37.555Z,99.90
2022-08-17T02:40:10.868Z,99.90
2022-08-17T02:42:41.694Z,99.90
2022-08-17T02:45:22.838Z,99.90
2022-08-17T02:47:50.877Z,99.90
2022-08-17T02:50:29.443Z,99.90
2022-08-17T02:52:58.777Z,99.90
2022-08-17T02:55:34.723Z,99.90
2022-08-17T02:58:06.796Z,99.90
2022-08-17T03:00:42.826Z,99.90
2022-08-17T03:03:15.274Z,99.90
2022-08-17T03:05:46.215Z,99.90
2022-08-17T03:08:14.692Z,99.90
2022-08-17T03:10:47.857Z,99.90
2022-08-17T03:13:18.106Z,99.90
2022-08-17T03:15:56.053Z,99.90
2022-08-17T03:18:26.329Z,99.90
2022-08-17T03:21:04.484Z,99.90
2022-08-17T03:23:32.867Z,99.90
2022-08-17T03:26:12.288Z,99.90
2022-08-17T03:28:44.067Z,99.90
2022-08-17T03:31:19.559Z,99.90
2022-08-17T03:33:50.215Z,99.90
2022-08-17T03:36:24.947Z,99.90
2022-08-17T03:39:02.835Z,99.90
2022-08-17T03:41:33.932Z,99.90
2022-08-17T03:44:08.479Z,99.90
2022-08-17T03:47:06.566Z,99.90
2022-08-17T03:49:56.094Z,99.90
2022-08-17T03:52:52.221Z,99.90
2022-08-17T03:55:42.778Z,99.90
2022-08-17T03:58:16.369Z,99.90
2022-08-17T04:00:57.647Z,99.90
2022-08-17T04:03:32.608Z,99.90
2022-08-17T04:06:13.596Z,99.90
2022-08-17T04:08:42.844Z,99.90
2022-08-17T04:11:11.632Z,99.90
2022-08-17T04:13:41.015Z,99.90
2022-08-17T04:16:09.757Z,99.90
2022-08-17T04:18:43.671Z,99.90
2022-08-17T04:21:15.578Z,99.90
2022-08-17T04:23:50.873Z,99.90
2022-08-17T04:26:52.560Z,99.90
2022-08-17T04:29:09.225Z,99.90
2022-08-17T04:31:42.433Z,99.90
2022-08-17T04:34:12.165Z,99.90
2022-08-17T04:36:50.319Z,99.90
2022-08-17T04:39:19.589Z,99.90
2022-08-17T04:42:06.352Z,99.90
2022-08-17T04:44:37.348Z,99.90
2022-08-17T04:47:08.274Z,99.90
2022-08-17T04:49:42.379Z,99.90
2022-08-17T04:52:29.744Z,99.90
2022-08-17T04:55:07.267Z,99.90
2022-08-17T04:57:45.034Z,99.90
2022-08-17T05:00:13.856Z,99.90
2022-08-17T05:02:50.988Z,99.90
2022-08-17T05:05:40.399Z,99.90
2022-08-17T05:08:11.523Z,99.90
2022-08-17T05:10:45.251Z,99.90
2022-08-17T05:13:34.999Z,99.90
2022-08-17T05:16:04.612Z,99.90
2022-08-17T05:18:33.064Z,99.90
2022-08-17T05:21:07.698Z,99.90
2022-08-17T05:23:42.470Z,99.90
2022-08-17T05:26:26.698Z,99.90
2022-08-17T05:29:03.057Z,99.90
2022-08-17T05:31:36.490Z,99.90
2022-08-17T05:34:07.535Z,99.90
2022-08-17T05:36:44.084Z,99.90
2022-08-17T05:39:17.773Z,99.90
2022-08-17T05:41:50.916Z,99.90
2022-08-17T05:44:21.462Z,99.90
2022-08-17T05:46:54.391Z,99.90
2022-08-17T05:49:29.359Z,99.90
2022-08-17T05:52:02.251Z,99.90
2022-08-17T05:54:42.194Z,99.90
2022-08-17T05:57:22.709Z,99.90
2022-08-17T06:00:21.029Z,99.90
2022-08-17T06:03:19.776Z,99.90
2022-08-17T06:05:56.820Z,99.90
2022-08-17T06:09:06.052Z,99.90
2022-08-17T06:12:14.223Z,99.90
2022-08-17T06:15:04.259Z,99.90
2022-08-17T06:17:34.931Z,99.90
2022-08-17T06:20:19.105Z,99.90
2022-08-17T06:23:04.485Z,99.90
2022-08-17T06:25:42.803Z,99.90
2022-08-17T06:28:27.090Z,99.90
2022-08-17T06:31:06.408Z,99.90
2022-08-17T06:33:37.608Z,99.90
2022-08-17T06:36:17.641Z,99.90
2022-08-17T06:39:06.125Z,99.90
2022-08-17T06:43:00.874Z,99.90
2022-08-17T06:45:19.896Z,99.90
2022-08-17T06:48:07.470Z,99.90
2022-08-17T06:50:48.447Z,99.90
2022-08-17T06:53:45.223Z,99.90
2022-08-17T06:56:53.694Z,99.90
2022-08-17T06:59:54.626Z,99.90
2022-08-17T07:02:52.211Z,99.90
2022-08-17T07:05:23.998Z,99.90
2022-08-17T07:08:04.775Z,99.90
2022-08-17T07:10:47.805Z,99.90
2022-08-17T07:13:41.442Z,99.90
2022-08-17T07:16:36.788Z,99.90
2022-08-17T07:19:10.786Z,99.90
2022-08-17T07:22:07.219Z,99.90
2022-08-17T07:24:41.597Z,99.90
2022-08-17T07:27:17.892Z,99.90
2022-08-17T07:29:53.826Z,99.90
2022-08-17T07:32:31.958Z,99.90
2022-08-17T07:35:10.703Z,99.90
2022-08-17T07:37:58.737Z,99.90
2022-08-17T07:41:03.662Z,99.90
2022-08-17T07:43:43.987Z,99.90
2022-08-17T07:46:38.412Z,99.90
2022-08-17T07:49:09.554Z,99.90
2022-08-17T07:51:56.697Z,99.90
2022-08-17T07:54:36.965Z,99.90
2022-08-17T07:57:16.862Z,99.90
2022-08-17T08:00:17.283Z,99.90
2022-08-17T08:03:01.725Z,99.90
2022-08-17T08:05:49.904Z,99.90
2022-08-17T08:08:36.518Z,99.90
2022-08-17T08:11:28.501Z,99.90
2022-08-17T08:14:16.753Z,99.90
2022-08-17T08:16:59.994Z,99.90
2022-08-17T08:19:29.995Z,99.90
2022-08-17T08:22:47.372Z,99.90
2022-08-17T08:25:28.700Z,99.90
2022-08-17T08:28:16.657Z,99.90
2022-08-17T08:30:54.389Z,99.90
2022-08-17T08:33:42.534Z,99.90
2022-08-17T08:37:12.478Z,99.90
2022-08-17T08:39:48.702Z,99.90
2022-08-17T08:42:52.127Z,99.90
2022-08-17T08:45:32.192Z,99.90
2022-08-17T08:48:56.982Z,99.90
2022-08-17T08:51:57.843Z,99.90
2022-08-17T08:55:01.465Z,99.90
2022-08-17T08:57:39.586Z,99.90
2022-08-17T09:00:20.773Z,99.90
2022-08-17T09:03:42.737Z,99.90
2022-08-17T09:07:01.853Z,99.90
2022-08-17T09:09:59.137Z,99.90
2022-08-17T09:13:09.966Z,99.90
2022-08-17T09:15:45.283Z,99.90
2022-08-17T09:19:00.458Z,99.90
2022-08-17T09:22:17.625Z,99.90
2022-08-17T09:25:16.881Z,99.90
2022-08-17T09:28:17.226Z,99.90
2022-08-17T09:30:51.742Z,99.00
2022-08-17T09:33:26.241Z,99.90
2022-08-17T09:36:10.199Z,99.90
2022-08-17T09:38:59.032Z,99.90
2022-08-17T09:41:33.546Z,99.80
2022-08-17T09:44:31.903Z,98.60
2022-08-17T09:47:20.022Z,97.20
2022-08-17T09:49:53.272Z,97.30
2022-08-17T09:52:27.811Z,98.10
2022-08-17T09:55:01.178Z,97.60
2022-08-17T09:58:05.004Z,97.70
2022-08-17T10:00:40.393Z,96.70
2022-08-17T10:03:34.435Z,96.30
2022-08-17T10:06:23.371Z,96.30
2022-08-17T10:09:18.599Z,96.30
2022-08-17T10:12:13.222Z,97.10
2022-08-17T10:15:12.797Z,97.10
2022-08-17T10:18:08.380Z,96.00
2022-08-17T10:21:24.859Z,95.90
2022-08-17T10:24:39.972Z,94.90
2022-08-17T10:27:42.381Z,93.60
2022-08-17T10:30:17.926Z,94.30
2022-08-17T10:33:22.512Z,93.70
2022-08-17T10:36:08.739Z,92.80
2022-08-17T10:39:03.416Z,90.00
2022-08-17T10:41:45.015Z,85.80
2022-08-17T10:44:39.420Z,87.30
2022-08-17T10:47:13.858Z,86.80
2022-08-17T10:50:00.520Z,89.60
2022-08-17T10:52:31.415Z,85.90
2022-08-17T10:55:01.590Z,90.00
2022-08-17T10:57:44.921Z,90.10
2022-08-17T11:00:27.401Z,87.60
2022-08-17T11:02:57.593Z,89.50
2022-08-17T11:06:04.927Z,90.00
2022-08-17T11:08:57.574Z,87.70
2022-08-17T11:11:37.805Z,88.50
2022-08-17T11:14:53.450Z,90.00
2022-08-17T11:17:41.546Z,86.80
2022-08-17T11:20:28.231Z,88.10
2022-08-17T11:23:33.650Z,83.70
2022-08-17T11:26:20.963Z,84.50
2022-08-17T11:29:01.362Z,86.20
2022-08-17T11:31:38.607Z,85.90
2022-08-17T11:34:26.979Z,83.90
2022-08-17T11:37:26.295Z,80.10
2022-08-17T11:40:14.861Z,77.40
2022-08-17T11:43:01.542Z,81.90
2022-08-17T11:45:41.011Z,76.80
2022-08-17T11:48:52.335Z,78.90
2022-08-17T11:51:38.858Z,76.20
2022-08-17T11:54:34.433Z,78.60
2022-08-17T11:57:27.187Z,80.00
2022-08-17T12:00:19.273Z,78.90
2022-08-17T12:03:25.964Z,80.60
2022-08-17T12:06:05.856Z,80.70
2022-08-17T12:08:43.542Z,80.70
2022-08-17T12:11:56.305Z,82.90
2022-08-17T12:14:20.231Z,82.80
2022-08-17T12:17:02.644Z,84.10
2022-08-17T12:19:34.183Z,84.10
2022-08-17T12:22:32.836Z,84.70
2022-08-17T12:25:15.027Z,85.20
2022-08-17T12:28:05.990Z,86.10
2022-08-17T12:30:36.234Z,86.40
2022-08-17T12:33:04.358Z,86.60
2022-08-17T12:35:41.771Z,86.80
2022-08-17T12:38:32.124Z,86.60
2022-08-17T12:41:25.564Z,86.90
2022-08-17T12:44:02.621Z,87.60
2022-08-17T12:46:35.503Z,87.50
2022-08-17T12:49:16.725Z,88.20
2022-08-17T12:51:46.938Z,88.30
2022-08-17T12:54:23.338Z,89.00
2022-08-17T12:56:54.065Z,89.40
2022-08-17T12:59:29.702Z,89.80
2022-08-17T13:02:01.929Z,89.90
2022-08-17T13:04:33.345Z,89.80
2022-08-17T13:07:05.446Z,89.90
2022-08-17T13:09:45.671Z,90.00
2022-08-17T13:12:13.338Z,90.30
2022-08-17T13:14:49.799Z,90.60
2022-08-17T13:17:31.167Z,90.70
2022-08-17T13:19:59.603Z,90.80
2022-08-17T13:22:35.564Z,91.00
2022-08-17T13:25:07.548Z,91.20
2022-08-17T13:27:35.985Z,91.40
2022-08-17T13:30:19.825Z,91.70
2022-08-17T13:32:48.355Z,92.00
2022-08-17T13:35:51.925Z,92.10
2022-08-17T13:38:49.784Z,92.60
2022-08-17T13:41:33.763Z,92.80
2022-08-17T13:44:04.327Z,92.90
2022-08-17T13:46:33.607Z,93.10
2022-08-17T13:49:09.797Z,93.10
2022-08-17T13:51:47.553Z,93.20
2022-08-17T13:54:18.915Z,93.40
2022-08-17T13:57:00.388Z,93.40
2022-08-17T13:59:55.230Z,93.30
2022-08-17T14:02:28.528Z,93.20
2022-08-17T14:04:58.480Z,93.30
2022-08-17T14:07:31.648Z,93.30
2022-08-17T14:10:05.911Z,93.30
2022-08-17T14:12:35.164Z,93.30
2022-08-17T14:15:03.528Z,93.40
2022-08-17T14:17:46.003Z,93.40
2022-08-17T14:20:24.897Z,93.30
2022-08-17T14:22:55.942Z,93.40
2022-08-17T14:25:27.011Z,93.40
2022-08-17T14:27:55.699Z,93.40
2022-08-17T14:30:26.962Z,93.40
2022-08-17T14:33:00.264Z,93.20
2022-08-17T14:35:29.561Z,92.90
2022-08-17T14:37:58.784Z,92.80
2022-08-17T14:40:27.227Z,92.80
2022-08-17T14:42:57.904Z,92.70
2022-08-17T14:45:29.979Z,92.90
2022-08-17T14:48:05.815Z,92.70
2022-08-17T14:50:36.116Z,92.40
2022-08-17T14:53:15.336Z,92.40
2022-08-17T14:55:47.348Z,92.40
2022-08-17T14:58:16.470Z,92.40
2022-08-17T15:00:44.601Z,92.40
2022-08-17T15:03:13.684Z,92.40
2022-08-17T15:05:46.069Z,92.50
2022-08-17T15:08:13.959Z,92.50
2022-08-17T15:10:41.730Z,92.10
2022-08-17T15:13:20.130Z,91.60
2022-08-17T15:15:49.020Z,91.80
2022-08-17T15:18:17.886Z,92.40
2022-08-17T15:20:48.789Z,93.00
2022-08-17T15:23:20.692Z,93.30
2022-08-17T15:25:52.769Z,93.80
2022-08-17T15:28:23.089Z,94.10
2022-08-17T15:30:53.337Z,94.80
2022-08-17T15:33:29.316Z,95.20
2022-08-17T15:36:10.247Z,95.00
2022-08-17T15:38:40.707Z,95.20
2022-08-17T15:41:15.500Z,95.50
2022-08-17T15:43:45.143Z,96.20
2022-08-17T15:46:17.656Z,96.10
2022-08-17T15:48:48.173Z,96.30
2022-08-17T15:51:26.522Z,96.60
2022-08-17T15:53:57.885Z,96.70
2022-08-17T15:56:29.181Z,96.80
2022-08-17T15:58:57.986Z,96.90
2022-08-17T16:02:33.667Z,97.00
2022-08-17T16:04:30.427Z,97.00
2022-08-17T16:06:59.971Z,97.00
2022-08-17T16:09:28.005Z,96.90
2022-08-17T16:11:56.464Z,96.90
2022-08-17T16:14:32.521Z,96.80
2022-08-17T16:17:38.867Z,96.90
2022-08-17T16:19:58.258Z,96.90
2022-08-17T16:22:38.820Z,97.00
2022-08-17T16:25:14.594Z,97.10
2022-08-17T16:27:43.701Z,97.30
2022-08-17T16:30:17.556Z,97.30
2022-08-17T16:32:47.490Z,97.20
2022-08-17T16:35:20.120Z,97.10
2022-08-17T16:37:54.498Z,97.10
2022-08-17T16:40:26.218Z,97.20
2022-08-17T16:42:56.048Z,97.30
2022-08-17T16:45:28.538Z,97.50
2022-08-17T16:47:59.189Z,97.60
2022-08-17T16:50:27.001Z,97.60
2022-08-17T16:53:06.677Z,97.70
2022-08-17T16:55:38.033Z,97.70
2022-08-17T16:58:23.416Z,97.80
2022-08-17T17:00:51.219Z,97.90
2022-08-17T17:03:22.243Z,97.90
2022-08-17T17:06:13.520Z,97.90
2022-08-17T17:08:55.706Z,98.00
2022-08-17T17:11:41.437Z,97.90
2022-08-17T17:14:18.326Z,97.90
2022-08-17T17:17:06.152Z,98.10
2022-08-17T17:20:04.055Z,98.10
2022-08-17T17:22:36.970Z,98.30
2022-08-17T17:25:30.535Z,98.50
2022-08-17T17:28:26.415Z,98.50
2022-08-17T17:31:16.289Z,98.90
2022-08-17T17:33:55.837Z,98.80
2022-08-17T17:36:35.443Z,98.80
2022-08-17T17:39:23.119Z,98.90
2022-08-17T17:41:57.854Z,99.00
2022-08-17T17:44:30.734Z,99.30
2022-08-17T17:47:01.464Z,99.30
2022-08-17T17:49:35.685Z,99.50
2022-08-17T17:52:13.387Z,99.60
2022-08-17T17:54:53.997Z,99.90
2022-08-17T17:58:22.564Z,99.90
2022-08-17T18:01:27.834Z,99.90
2022-08-17T18:04:11.178Z,99.90
2022-08-17T18:07:09.883Z,99.90
2022-08-17T18:09:51.939Z,99.90
2022-08-17T18:12:48.677Z,99.90
2022-08-17T18:15:51.066Z,99.90
2022-08-17T18:18:18.793Z,99.90
2022-08-17T18:21:00.276Z,99.90
2022-08-17T18:23:31.347Z,99.90
2022-08-17T18:26:04.287Z,99.90
2022-08-17T18:28:43.572Z,99.90
2022-08-17T18:31:25.166Z,99.90
2022-08-17T18:34:46.022Z,99.90
2022-08-17T18:37:37.755Z,99.90
2022-08-17T18:40:20.583Z,99.90
2022-08-17T18:43:44.341Z,99.90
2022-08-17T18:46:33.263Z,99.90
2022-08-17T18:49:04.810Z,99.90
2022-08-17T18:51:42.880Z,99.90
2022-08-17T18:54:23.546Z,99.90
2022-08-17T18:56:59.934Z,99.90
2022-08-17T18:59:48.413Z,99.90
2022-08-17T19:02:43.840Z,99.90
2022-08-17T19:05:29.017Z,99.90
2022-08-17T19:08:33.973Z,99.90
2022-08-17T19:11:05.222Z,99.90
2022-08-17T19:13:57.140Z,99.90
2022-08-17T19:16:27.817Z,99.90
2022-08-17T19:19:22.367Z,99.90
2022-08-17T19:21:59.178Z,99.90
2022-08-17T19:24:30.706Z,99.90
2022-08-17T19:27:13.000Z,99.90
2022-08-17T19:30:06.965Z,99.90
2022-08-17T19:32:41.002Z,99.90
2022-08-17T19:35:17.358Z,99.90
2022-08-17T19:37:45.551Z,99.90
2022-08-17T19:40:51.222Z,99.90
2022-08-17T19:43:40.701Z,99.90
2022-08-17T19:46:17.061Z,99.90
2022-08-17T19:48:54.078Z,99.90
2022-08-17T19:51:36.175Z,99.90
2022-08-17T19:54:35.104Z,99.90
2022-08-17T19:57:27.637Z,99.90
2022-08-17T20:00:12.131Z,99.90
2022-08-17T20:03:05.953Z,99.90
2022-08-17T20:08:58.124Z,99.90
2022-08-17T20:11:42.364Z,99.90
2022-08-17T20:14:15.182Z,99.90
2022-08-17T20:16:46.503Z,99.90
2022-08-17T20:19:42.048Z,99.90
2022-08-17T20:22:24.583Z,99.90
2022-08-17T20:25:30.130Z,99.90
2022-08-17T20:28:19.550Z,99.90
2022-08-17T20:30:50.128Z,99.90
2022-08-17T20:33:34.589Z,99.90
2022-08-17T20:36:11.254Z,99.90
2022-08-17T20:38:51.372Z,99.90
2022-08-17T20:41:28.519Z,99.90
2022-08-17T20:43:59.271Z,99.90
2022-08-17T20:46:51.745Z,99.90
2022-08-17T20:49:31.292Z,99.90
2022-08-17T20:52:07.782Z,99.90
2022-08-17T20:54:57.363Z,99.90
2022-08-17T20:57:34.738Z,99.90
2022-08-17T21:00:34.922Z,99.90
2022-08-17T21:03:24.580Z,99.90
2022-08-17T21:06:15.349Z,99.90
2022-08-17T21:09:29.956Z,99.90
2022-08-17T21:12:04.620Z,99.90
2022-08-17T21:14:58.215Z,99.90
2022-08-17T21:18:04.631Z,99.90
2022-08-17T21:21:00.192Z,99.90
2022-08-17T21:23:59.559Z,99.90
2022-08-17T21:26:30.568Z,99.90
2022-08-17T21:29:29.904Z,99.90
2022-08-17T21:32:03.291Z,99.90
2022-08-17T21:34:35.928Z,99.90
2022-08-17T21:37:26.548Z,99.90
2022-08-17T21:40:18.853Z,99.90
2022-08-17T21:43:32.543Z,99.90
2022-08-17T21:46:29.575Z,99.90
2022-08-17T21:49:13.428Z,99.90
2022-08-17T21:51:54.285Z,99.90
2022-08-17T21:54:30.973Z,99.90
2022-08-17T21:57:01.615Z,99.90
2022-08-17T21:59:36.779Z,99.90
2022-08-17T22:02:34.013Z,99.90
2022-08-17T22:05:07.938Z,99.90
2022-08-17T22:07:48.672Z,99.90
2022-08-17T22:10:37.073Z,99.90
2022-08-17T22:13:16.991Z,99.90
2022-08-17T22:16:29.400Z,99.90
2022-08-17T22:18:59.023Z,99.90
2022-08-17T22:21:29.507Z,99.90
2022-08-17T22:24:16.322Z,99.90
2022-08-17T22:27:03.168Z,99.90
2022-08-17T22:29:57.128Z,99.90
2022-08-17T22:32:42.213Z,99.90
2022-08-17T22:35:35.045Z,99.90
2022-08-17T22:38:21.089Z,99.90
2022-08-17T22:40:51.728Z,99.90
2022-08-17T22:43:28.717Z,99.90
2022-08-17T22:45:59.314Z,99.90
2022-08-17T22:48:29.778Z,99.90
2022-08-17T22:51:14.282Z,99.90
2022-08-17T22:54:19.010Z,99.90
2022-08-17T22:57:14.621Z,99.90
2022-08-17T22:59:53.723Z,99.90
2022-08-17T23:02:35.681Z,99.90
2022-08-17T23:05:34.418Z,99.90
2022-08-17T23:08:04.453Z,99.90
2022-08-17T23:10:32.517Z,99.90
2022-08-17T23:13:04.260Z,99.90
2022-08-17T23:15:34.014Z,99.90
2022-08-17T23:18:04.919Z,99.90
2022-08-17T23:20:35.864Z,99.90
2022-08-17T23:23:15.080Z,99.90
2022-08-17T23:25:47.464Z,99.90
2022-08-17T23:28:15.377Z,99.90
2022-08-17T23:30:44.773Z,99.90
2022-08-17T23:33:25.703Z,99.90
2022-08-17T23:36:01.574Z,99.90
2022-08-17T23:38:32.958Z,99.90
2022-08-17T23:41:04.965Z,99.90
2022-08-17T23:43:33.495Z,99.90
2022-08-17T23:46:03.721Z,99.90
2022-08-17T23:48:36.684Z,99.90
2022-08-17T23:51:19.063Z,99.90
2022-08-17T23:53:51.485Z,99.90
2022-08-17T23:56:27.291Z,99.90
2022-08-17T23:58:56.056Z,99.90
